sensor_id;sensor_type;location;lat;lon;timestamp;temperature;humidity
30288;DHT22;17103;48.316;11.558;2022-11-20T00:01:09;10.90;54.30
30288;DHT22;17103;48.316;11.558;2022-11-20T00:03:35;10.90;54.00
30288;DHT22;17103;48.316;11.558;2022-11-20T00:06:05;11.10;53.70
30288;DHT22;17103;48.316;11.558;2022-11-20T00:08:31;11.00;53.50
30288;DHT22;17103;48.316;11.558;2022-11-20T00:10:57;11.00;53.50
30288;DHT22;17103;48.316;11.558;2022-11-20T00:13:27;11.10;53.80
30288;DHT22;17103;48.316;11.558;2022-11-20T00:15:59;11.20;53.10
30288;DHT22;17103;48.316;11.558;2022-11-20T00:18:25;11.20;52.60
30288;DHT22;17103;48.316;11.558;2022-11-20T00:20:51;11.20;52.50
30288;DHT22;17103;48.316;11.558;2022-11-20T00:23:16;11.20;52.30
30288;DHT22;17103;48.316;11.558;2022-11-20T00:25:42;11.20;52.30
30288;DHT22;17103;48.316;11.558;2022-11-20T00:28:08;11.20;52.70
30288;DHT22;17103;48.316;11.558;2022-11-20T00:30:33;11.30;52.80
30288;DHT22;17103;48.316;11.558;2022-11-20T00:32:59;11.30;52.40
30288;DHT22;17103;48.316;11.558;2022-11-20T00:35:25;11.30;52.40
30288;DHT22;17103;48.316;11.558;2022-11-20T00:37:50;11.40;52.10
30288;DHT22;17103;48.316;11.558;2022-11-20T00:40:16;11.40;52.60
30288;DHT22;17103;48.316;11.558;2022-11-20T00:42:42;11.40;52.50
30288;DHT22;17103;48.316;11.558;2022-11-20T00:45:07;11.40;52.50
30288;DHT22;17103;48.316;11.558;2022-11-20T00:47:33;11.50;52.40
30288;DHT22;17103;48.316;11.558;2022-11-20T00:49:59;11.50;52.50
30288;DHT22;17103;48.316;11.558;2022-11-20T00:52:25;11.50;52.40
30288;DHT22;17103;48.316;11.558;2022-11-20T00:54:51;11.60;52.60
30288;DHT22;17103;48.316;11.558;2022-11-20T00:57:16;11.60;51.90
30288;DHT22;17103;48.316;11.558;2022-11-20T00:59:42;11.70;51.80
30288;DHT22;17103;48.316;11.558;2022-11-20T01:02:07;11.70;51.30
30288;DHT22;17103;48.316;11.558;2022-11-20T01:04:33;11.70;51.60
30288;DHT22;17103;48.316;11.558;2022-11-20T01:06:59;11.70;51.40
30288;DHT22;17103;48.316;11.558;2022-11-20T01:09:24;11.70;51.40
30288;DHT22;17103;48.316;11.558;2022-11-20T01:11:50;11.80;51.60
30288;DHT22;17103;48.316;11.558;2022-11-20T01:14:18;11.70;51.70
30288;DHT22;17103;48.316;11.558;2022-11-20T01:16:49;11.70;51.60
30288;DHT22;17103;48.316;11.558;2022-11-20T01:19:17;11.70;50.90
30288;DHT22;17103;48.316;11.558;2022-11-20T01:21:45;11.70;50.60
30288;DHT22;17103;48.316;11.558;2022-11-20T01:24:13;11.70;50.50
30288;DHT22;17103;48.316;11.558;2022-11-20T01:26:40;11.70;50.60
30288;DHT22;17103;48.316;11.558;2022-11-20T01:29:07;11.70;50.50
30288;DHT22;17103;48.316;11.558;2022-11-20T01:31:36;12.20;51.10
30288;DHT22;17103;48.316;11.558;2022-11-20T01:34:05;11.60;50.60
30288;DHT22;17103;48.316;11.558;2022-11-20T01:36:33;11.50;50.30
30288;DHT22;17103;48.316;11.558;2022-11-20T01:39:01;10.70;50.00
30288;DHT22;17103;48.316;11.558;2022-11-20T01:41:29;11.70;51.00
30288;DHT22;17103;48.316;11.558;2022-11-20T01:44:16;12.00;50.90
30288;DHT22;17103;48.316;11.558;2022-11-20T01:46:58;11.50;50.40
30288;DHT22;17103;48.316;11.558;2022-11-20T01:50:09;11.40;50.60
30288;DHT22;17103;48.316;11.558;2022-11-20T01:52:38;11.40;50.80
30288;DHT22;17103;48.316;11.558;2022-11-20T01:55:12;11.40;50.60
30288;DHT22;17103;48.316;11.558;2022-11-20T01:57:38;11.40;50.20
30288;DHT22;17103;48.316;11.558;2022-11-20T02:00:10;11.40;50.40
30288;DHT22;17103;48.316;11.558;2022-11-20T02:02:38;11.40;50.50
30288;DHT22;17103;48.316;11.558;2022-11-20T02:07:57;11.40;50.30
30288;DHT22;17103;48.316;11.558;2022-11-20T02:10:24;11.40;50.30
30288;DHT22;17103;48.316;11.558;2022-11-20T02:12:51;11.40;50.50
30288;DHT22;17103;48.316;11.558;2022-11-20T02:15:36;11.40;50.10
30288;DHT22;17103;48.316;11.558;2022-11-20T02:18:01;11.40;49.90
30288;DHT22;17103;48.316;11.558;2022-11-20T02:20:27;11.40;49.90
30288;DHT22;17103;48.316;11.558;2022-11-20T02:23:05;11.40;50.10
30288;DHT22;17103;48.316;11.558;2022-11-20T02:25:35;11.30;49.90
30288;DHT22;17103;48.316;11.558;2022-11-20T02:28:02;11.80;50.00
30288;DHT22;17103;48.316;11.558;2022-11-20T02:30:28;11.20;49.80
30288;DHT22;17103;48.316;11.558;2022-11-20T02:32:53;11.20;50.00
30288;DHT22;17103;48.316;11.558;2022-11-20T02:37:53;11.10;50.30
30288;DHT22;17103;48.316;11.558;2022-11-20T02:40:19;11.00;50.20
30288;DHT22;17103;48.316;11.558;2022-11-20T02:42:44;11.00;50.40
30288;DHT22;17103;48.316;11.558;2022-11-20T02:45:10;11.00;50.40
30288;DHT22;17103;48.316;11.558;2022-11-20T02:47:36;11.00;50.40
30288;DHT22;17103;48.316;11.558;2022-11-20T02:50:03;11.00;50.20
30288;DHT22;17103;48.316;11.558;2022-11-20T02:52:30;11.00;50.40
30288;DHT22;17103;48.316;11.558;2022-11-20T02:54:56;11.00;50.50
30288;DHT22;17103;48.316;11.558;2022-11-20T02:57:21;11.00;50.40
30288;DHT22;17103;48.316;11.558;2022-11-20T02:59:47;11.00;50.30
30288;DHT22;17103;48.316;11.558;2022-11-20T03:02:12;11.40;51.10
30288;DHT22;17103;48.316;11.558;2022-11-20T03:04:38;11.10;50.20
30288;DHT22;17103;48.316;11.558;2022-11-20T03:07:04;11.10;50.00
30288;DHT22;17103;48.316;11.558;2022-11-20T03:09:29;11.10;50.10
30288;DHT22;17103;48.316;11.558;2022-11-20T03:11:55;11.10;50.00
30288;DHT22;17103;48.316;11.558;2022-11-20T03:14:22;11.10;50.20
30288;DHT22;17103;48.316;11.558;2022-11-20T03:16:47;11.20;50.30
30288;DHT22;17103;48.316;11.558;2022-11-20T03:19:14;11.10;49.80
30288;DHT22;17103;48.316;11.558;2022-11-20T03:21:40;11.10;50.00
30288;DHT22;17103;48.316;11.558;2022-11-20T03:24:09;11.10;49.60
30288;DHT22;17103;48.316;11.558;2022-11-20T03:26:35;11.10;49.80
30288;DHT22;17103;48.316;11.558;2022-11-20T03:29:03;11.10;49.60
30288;DHT22;17103;48.316;11.558;2022-11-20T03:31:32;11.10;49.60
30288;DHT22;17103;48.316;11.558;2022-11-20T03:33:59;11.00;49.40
30288;DHT22;17103;48.316;11.558;2022-11-20T03:36:26;11.00;49.60
30288;DHT22;17103;48.316;11.558;2022-11-20T03:38:54;11.00;49.40
30288;DHT22;17103;48.316;11.558;2022-11-20T03:41:21;11.00;49.60
30288;DHT22;17103;48.316;11.558;2022-11-20T03:43:52;10.90;49.10
30288;DHT22;17103;48.316;11.558;2022-11-20T03:46:19;10.90;49.20
30288;DHT22;17103;48.316;11.558;2022-11-20T03:48:44;10.50;48.70
30288;DHT22;17103;48.316;11.558;2022-11-20T03:51:16;10.90;49.00
30288;DHT22;17103;48.316;11.558;2022-11-20T03:53:44;11.30;49.80
30288;DHT22;17103;48.316;11.558;2022-11-20T03:56:10;10.90;49.50
30288;DHT22;17103;48.316;11.558;2022-11-20T03:58:37;10.90;49.80
30288;DHT22;17103;48.316;11.558;2022-11-20T04:01:13;11.00;49.70
30288;DHT22;17103;48.316;11.558;2022-11-20T04:03:40;10.90;49.40
30288;DHT22;17103;48.316;11.558;2022-11-20T04:06:10;11.00;49.60
30288;DHT22;17103;48.316;11.558;2022-11-20T04:08:36;11.00;49.00
30288;DHT22;17103;48.316;11.558;2022-11-20T04:11:19;11.00;49.20
30288;DHT22;17103;48.316;11.558;2022-11-20T04:13:53;11.10;49.20
30288;DHT22;17103;48.316;11.558;2022-11-20T04:16:20;11.10;48.50
30288;DHT22;17103;48.316;11.558;2022-11-20T04:18:46;11.00;48.10
30288;DHT22;17103;48.316;11.558;2022-11-20T04:21:12;11.00;48.40
30288;DHT22;17103;48.316;11.558;2022-11-20T04:23:38;11.00;48.50
30288;DHT22;17103;48.316;11.558;2022-11-20T04:26:10;11.30;48.30
30288;DHT22;17103;48.316;11.558;2022-11-20T04:28:36;10.90;48.50
30288;DHT22;17103;48.316;11.558;2022-11-20T04:31:08;10.90;48.80
30288;DHT22;17103;48.316;11.558;2022-11-20T04:33:35;11.00;48.30
30288;DHT22;17103;48.316;11.558;2022-11-20T04:36:11;11.00;48.70
30288;DHT22;17103;48.316;11.558;2022-11-20T04:38:38;11.00;48.30
30288;DHT22;17103;48.316;11.558;2022-11-20T04:41:06;11.00;48.10
30288;DHT22;17103;48.316;11.558;2022-11-20T04:43:33;11.10;47.90
30288;DHT22;17103;48.316;11.558;2022-11-20T04:46:00;11.10;47.50
30288;DHT22;17103;48.316;11.558;2022-11-20T04:48:27;11.10;47.90
30288;DHT22;17103;48.316;11.558;2022-11-20T04:50:53;11.10;48.00
30288;DHT22;17103;48.316;11.558;2022-11-20T04:53:20;11.10;47.60
30288;DHT22;17103;48.316;11.558;2022-11-20T04:55:46;11.30;47.40
30288;DHT22;17103;48.316;11.558;2022-11-20T04:58:12;11.10;47.70
30288;DHT22;17103;48.316;11.558;2022-11-20T05:00:37;11.00;47.30
30288;DHT22;17103;48.316;11.558;2022-11-20T05:03:04;11.20;47.50
30288;DHT22;17103;48.316;11.558;2022-11-20T05:05:30;10.90;47.60
30288;DHT22;17103;48.316;11.558;2022-11-20T05:07:57;10.90;47.60
30288;DHT22;17103;48.316;11.558;2022-11-20T05:10:23;10.90;47.80
30288;DHT22;17103;48.316;11.558;2022-11-20T05:12:49;10.90;47.90
30288;DHT22;17103;48.316;11.558;2022-11-20T05:15:15;10.90;47.60
30288;DHT22;17103;48.316;11.558;2022-11-20T05:17:40;10.90;47.80
30288;DHT22;17103;48.316;11.558;2022-11-20T05:20:06;11.00;47.90
30288;DHT22;17103;48.316;11.558;2022-11-20T05:22:32;11.00;48.00
30288;DHT22;17103;48.316;11.558;2022-11-20T05:24:58;11.80;48.90
30288;DHT22;17103;48.316;11.558;2022-11-20T05:27:24;11.00;48.40
30288;DHT22;17103;48.316;11.558;2022-11-20T05:29:50;11.00;47.60
30288;DHT22;17103;48.316;11.558;2022-11-20T05:32:16;11.20;48.10
30288;DHT22;17103;48.316;11.558;2022-11-20T05:34:41;11.70;48.20
30288;DHT22;17103;48.316;11.558;2022-11-20T05:37:07;11.10;47.90
30288;DHT22;17103;48.316;11.558;2022-11-20T05:39:32;11.00;47.90
30288;DHT22;17103;48.316;11.558;2022-11-20T05:41:58;12.00;48.40
30288;DHT22;17103;48.316;11.558;2022-11-20T05:44:42;11.10;47.60
30288;DHT22;17103;48.316;11.558;2022-11-20T05:47:08;11.00;47.10
30288;DHT22;17103;48.316;11.558;2022-11-20T05:49:33;11.00;47.10
30288;DHT22;17103;48.316;11.558;2022-11-20T05:51:59;10.90;47.10
30288;DHT22;17103;48.316;11.558;2022-11-20T05:54:25;10.80;46.70
30288;DHT22;17103;48.316;11.558;2022-11-20T05:56:50;11.00;47.20
30288;DHT22;17103;48.316;11.558;2022-11-20T05:59:16;10.70;47.10
30288;DHT22;17103;48.316;11.558;2022-11-20T06:01:42;10.60;47.10
30288;DHT22;17103;48.316;11.558;2022-11-20T06:04:07;10.40;47.10
30288;DHT22;17103;48.316;11.558;2022-11-20T06:06:33;10.40;47.30
30288;DHT22;17103;48.316;11.558;2022-11-20T06:08:59;10.30;47.40
30288;DHT22;17103;48.316;11.558;2022-11-20T06:11:25;10.20;47.40
30288;DHT22;17103;48.316;11.558;2022-11-20T06:13:51;10.10;47.50
30288;DHT22;17103;48.316;11.558;2022-11-20T06:16:19;10.00;47.60
30288;DHT22;17103;48.316;11.558;2022-11-20T06:18:45;9.90;48.60
30288;DHT22;17103;48.316;11.558;2022-11-20T06:21:20;9.80;48.80
30288;DHT22;17103;48.316;11.558;2022-11-20T06:23:46;9.70;48.90
30288;DHT22;17103;48.316;11.558;2022-11-20T06:26:23;9.70;49.10
30288;DHT22;17103;48.316;11.558;2022-11-20T06:28:50;9.60;49.10
30288;DHT22;17103;48.316;11.558;2022-11-20T06:31:20;9.50;49.70
30288;DHT22;17103;48.316;11.558;2022-11-20T06:33:46;9.50;49.40
30288;DHT22;17103;48.316;11.558;2022-11-20T06:36:14;9.40;49.40
30288;DHT22;17103;48.316;11.558;2022-11-20T06:38:40;9.40;49.70
30288;DHT22;17103;48.316;11.558;2022-11-20T06:41:08;9.30;49.70
30288;DHT22;17103;48.316;11.558;2022-11-20T06:43:35;9.30;49.80
30288;DHT22;17103;48.316;11.558;2022-11-20T06:46:01;9.30;49.80
30288;DHT22;17103;48.316;11.558;2022-11-20T06:48:28;9.20;49.80
30288;DHT22;17103;48.316;11.558;2022-11-20T06:50:54;9.20;49.90
30288;DHT22;17103;48.316;11.558;2022-11-20T06:53:20;9.10;50.00
30288;DHT22;17103;48.316;11.558;2022-11-20T06:55:47;9.60;50.50
30288;DHT22;17103;48.316;11.558;2022-11-20T06:58:14;9.00;50.10
30288;DHT22;17103;48.316;11.558;2022-11-20T07:00:40;9.00;50.30
30288;DHT22;17103;48.316;11.558;2022-11-20T07:03:07;8.90;50.30
30288;DHT22;17103;48.316;11.558;2022-11-20T07:05:33;8.90;50.40
30288;DHT22;17103;48.316;11.558;2022-11-20T07:07:59;8.90;50.50
30288;DHT22;17103;48.316;11.558;2022-11-20T07:10:26;9.50;50.90
30288;DHT22;17103;48.316;11.558;2022-11-20T07:12:52;8.90;50.50
30288;DHT22;17103;48.316;11.558;2022-11-20T07:15:20;8.90;50.50
30288;DHT22;17103;48.316;11.558;2022-11-20T07:17:46;8.90;50.50
30288;DHT22;17103;48.316;11.558;2022-11-20T07:20:13;8.90;50.50
30288;DHT22;17103;48.316;11.558;2022-11-20T07:22:39;8.90;50.50
30288;DHT22;17103;48.316;11.558;2022-11-20T07:25:05;9.00;51.20
30288;DHT22;17103;48.316;11.558;2022-11-20T07:27:31;9.00;50.70
30288;DHT22;17103;48.316;11.558;2022-11-20T07:29:57;9.00;50.60
30288;DHT22;17103;48.316;11.558;2022-11-20T07:32:23;9.00;50.60
30288;DHT22;17103;48.316;11.558;2022-11-20T07:34:50;9.00;50.60
30288;DHT22;17103;48.316;11.558;2022-11-20T07:37:16;9.20;50.80
30288;DHT22;17103;48.316;11.558;2022-11-20T07:39:42;9.40;51.00
30288;DHT22;17103;48.316;11.558;2022-11-20T07:42:08;8.70;50.40
30288;DHT22;17103;48.316;11.558;2022-11-20T07:44:35;10.20;50.70
30288;DHT22;17103;48.316;11.558;2022-11-20T07:47:01;9.00;50.60
30288;DHT22;17103;48.316;11.558;2022-11-20T07:49:27;9.80;51.10
30288;DHT22;17103;48.316;11.558;2022-11-20T07:51:53;9.10;50.60
30288;DHT22;17103;48.316;11.558;2022-11-20T07:54:22;9.20;50.60
30288;DHT22;17103;48.316;11.558;2022-11-20T07:56:48;9.20;50.50
30288;DHT22;17103;48.316;11.558;2022-11-20T07:59:15;9.20;50.40
30288;DHT22;17103;48.316;11.558;2022-11-20T08:01:41;10.10;50.20
30288;DHT22;17103;48.316;11.558;2022-11-20T08:04:08;10.10;50.20
30288;DHT22;17103;48.316;11.558;2022-11-20T08:06:34;9.20;50.30
30288;DHT22;17103;48.316;11.558;2022-11-20T08:08:59;9.20;50.40
30288;DHT22;17103;48.316;11.558;2022-11-20T08:11:26;9.20;50.40
30288;DHT22;17103;48.316;11.558;2022-11-20T08:14:10;9.30;50.40
30288;DHT22;17103;48.316;11.558;2022-11-20T08:16:40;9.40;50.30
30288;DHT22;17103;48.316;11.558;2022-11-20T08:19:06;9.30;50.10
30288;DHT22;17103;48.316;11.558;2022-11-20T08:21:32;9.30;50.10
30288;DHT22;17103;48.316;11.558;2022-11-20T08:23:58;9.30;50.20
30288;DHT22;17103;48.316;11.558;2022-11-20T08:26:25;9.20;50.20
30288;DHT22;17103;48.316;11.558;2022-11-20T08:28:54;9.60;50.70
30288;DHT22;17103;48.316;11.558;2022-11-20T08:31:22;9.60;50.70
30288;DHT22;17103;48.316;11.558;2022-11-20T08:33:48;9.20;50.40
30288;DHT22;17103;48.316;11.558;2022-11-20T08:36:13;9.70;50.80
30288;DHT22;17103;48.316;11.558;2022-11-20T08:38:39;9.20;50.30
30288;DHT22;17103;48.316;11.558;2022-11-20T08:41:05;9.30;50.40
30288;DHT22;17103;48.316;11.558;2022-11-20T08:43:52;9.20;50.40
30288;DHT22;17103;48.316;11.558;2022-11-20T08:46:19;9.30;50.60
30288;DHT22;17103;48.316;11.558;2022-11-20T08:48:45;9.80;50.80
30288;DHT22;17103;48.316;11.558;2022-11-20T08:51:11;9.30;51.00
30288;DHT22;17103;48.316;11.558;2022-11-20T08:53:37;9.30;50.40
30288;DHT22;17103;48.316;11.558;2022-11-20T08:56:03;9.30;50.60
30288;DHT22;17103;48.316;11.558;2022-11-20T08:58:28;9.30;50.50
30288;DHT22;17103;48.316;11.558;2022-11-20T09:00:54;9.40;50.60
30288;DHT22;17103;48.316;11.558;2022-11-20T09:03:20;9.30;50.60
30288;DHT22;17103;48.316;11.558;2022-11-20T09:05:45;9.40;50.60
30288;DHT22;17103;48.316;11.558;2022-11-20T09:08:11;9.40;50.50
30288;DHT22;17103;48.316;11.558;2022-11-20T09:10:37;9.40;50.50
30288;DHT22;17103;48.316;11.558;2022-11-20T09:13:05;9.40;50.30
30288;DHT22;17103;48.316;11.558;2022-11-20T09:15:31;9.40;50.50
30288;DHT22;17103;48.316;11.558;2022-11-20T09:17:59;9.40;50.40
30288;DHT22;17103;48.316;11.558;2022-11-20T09:20:25;9.50;50.50
30288;DHT22;17103;48.316;11.558;2022-11-20T09:22:56;9.50;50.30
30288;DHT22;17103;48.316;11.558;2022-11-20T09:25:22;9.50;50.00
30288;DHT22;17103;48.316;11.558;2022-11-20T09:27:48;10.10;49.60
30288;DHT22;17103;48.316;11.558;2022-11-20T09:30:20;9.50;49.90
30288;DHT22;17103;48.316;11.558;2022-11-20T09:32:47;10.00;49.50
30288;DHT22;17103;48.316;11.558;2022-11-20T09:35:12;9.40;50.10
30288;DHT22;17103;48.316;11.558;2022-11-20T09:37:40;9.50;50.40
30288;DHT22;17103;48.316;11.558;2022-11-20T09:40:09;9.50;50.50
30288;DHT22;17103;48.316;11.558;2022-11-20T09:42:45;9.60;50.40
30288;DHT22;17103;48.316;11.558;2022-11-20T09:45:23;9.60;50.10
30288;DHT22;17103;48.316;11.558;2022-11-20T09:50:53;9.70;50.10
30288;DHT22;17103;48.316;11.558;2022-11-20T09:53:41;9.70;49.50
30288;DHT22;17103;48.316;11.558;2022-11-20T09:56:11;9.70;49.40
30288;DHT22;17103;48.316;11.558;2022-11-20T09:58:45;9.70;49.90
30288;DHT22;17103;48.316;11.558;2022-11-20T10:01:17;9.70;49.80
30288;DHT22;17103;48.316;11.558;2022-11-20T10:03:51;9.70;49.70
30288;DHT22;17103;48.316;11.558;2022-11-20T10:06:24;9.80;49.70
30288;DHT22;17103;48.316;11.558;2022-11-20T10:12:12;9.80;49.60
30288;DHT22;17103;48.316;11.558;2022-11-20T10:22:55;9.90;49.20
30288;DHT22;17103;48.316;11.558;2022-11-20T10:34:25;10.00;48.80
30288;DHT22;17103;48.316;11.558;2022-11-20T10:37:15;10.00;49.10
30288;DHT22;17103;48.316;11.558;2022-11-20T10:42:44;10.10;48.90
30288;DHT22;17103;48.316;11.558;2022-11-20T10:47:41;10.30;49.30
30288;DHT22;17103;48.316;11.558;2022-11-20T10:50:11;10.40;48.90
30288;DHT22;17103;48.316;11.558;2022-11-20T10:55:40;10.60;47.50
30288;DHT22;17103;48.316;11.558;2022-11-20T10:58:20;10.60;47.00
30288;DHT22;17103;48.316;11.558;2022-11-20T11:00:47;10.60;46.90
30288;DHT22;17103;48.316;11.558;2022-11-20T11:03:28;10.60;47.20
30288;DHT22;17103;48.316;11.558;2022-11-20T11:06:14;10.60;47.50
30288;DHT22;17103;48.316;11.558;2022-11-20T11:08:41;10.60;46.90
30288;DHT22;17103;48.316;11.558;2022-11-20T11:13:49;10.60;46.10
30288;DHT22;17103;48.316;11.558;2022-11-20T11:16:26;10.50;46.00
30288;DHT22;17103;48.316;11.558;2022-11-20T11:19:07;10.50;46.70
30288;DHT22;17103;48.316;11.558;2022-11-20T11:21:36;10.40;46.60
30288;DHT22;17103;48.316;11.558;2022-11-20T11:24:20;10.30;46.70
30288;DHT22;17103;48.316;11.558;2022-11-20T11:27:09;10.30;47.00
30288;DHT22;17103;48.316;11.558;2022-11-20T11:29:36;10.30;47.20
30288;DHT22;17103;48.316;11.558;2022-11-20T11:32:34;10.20;47.50
30288;DHT22;17103;48.316;11.558;2022-11-20T11:35:05;10.30;48.10
30288;DHT22;17103;48.316;11.558;2022-11-20T11:37:36;10.30;48.30
30288;DHT22;17103;48.316;11.558;2022-11-20T11:40:04;10.50;48.50
30288;DHT22;17103;48.316;11.558;2022-11-20T11:42:30;10.50;47.60
30288;DHT22;17103;48.316;11.558;2022-11-20T11:44:58;11.20;47.60
30288;DHT22;17103;48.316;11.558;2022-11-20T11:47:32;10.60;46.70
30288;DHT22;17103;48.316;11.558;2022-11-20T11:50:19;10.60;46.90
30288;DHT22;17103;48.316;11.558;2022-11-20T11:53:02;10.60;47.00
30288;DHT22;17103;48.316;11.558;2022-11-20T11:55:36;10.60;47.00
30288;DHT22;17103;48.316;11.558;2022-11-20T12:00:57;10.60;46.40
30288;DHT22;17103;48.316;11.558;2022-11-20T12:03:35;10.60;46.90
30288;DHT22;17103;48.316;11.558;2022-11-20T12:06:06;10.50;47.20
30288;DHT22;17103;48.316;11.558;2022-11-20T12:14:02;10.30;47.60
30288;DHT22;17103;48.316;11.558;2022-11-20T12:16:36;10.20;48.20
30288;DHT22;17103;48.316;11.558;2022-11-20T12:19:11;10.20;48.60
30288;DHT22;17103;48.316;11.558;2022-11-20T12:30:18;10.10;48.90
30288;DHT22;17103;48.316;11.558;2022-11-20T12:44:43;10.10;49.60
30288;DHT22;17103;48.316;11.558;2022-11-20T12:47:51;10.10;49.60
30288;DHT22;17103;48.316;11.558;2022-11-20T12:56:48;10.20;49.40
30288;DHT22;17103;48.316;11.558;2022-11-20T13:07:39;10.20;48.90
30288;DHT22;17103;48.316;11.558;2022-11-20T13:10:33;10.20;49.10
30288;DHT22;17103;48.316;11.558;2022-11-20T13:13:23;10.20;49.40
30288;DHT22;17103;48.316;11.558;2022-11-20T13:18:41;10.20;49.00
30288;DHT22;17103;48.316;11.558;2022-11-20T13:21:22;10.30;48.80
30288;DHT22;17103;48.316;11.558;2022-11-20T13:23:48;10.40;48.90
30288;DHT22;17103;48.316;11.558;2022-11-20T13:26:24;10.20;48.80
30288;DHT22;17103;48.316;11.558;2022-11-20T13:29:20;10.20;49.00
30288;DHT22;17103;48.316;11.558;2022-11-20T13:31:47;10.30;49.40
30288;DHT22;17103;48.316;11.558;2022-11-20T13:34:24;10.20;49.30
30288;DHT22;17103;48.316;11.558;2022-11-20T13:36:53;10.10;49.80
30288;DHT22;17103;48.316;11.558;2022-11-20T13:39:31;10.10;49.40
30288;DHT22;17103;48.316;11.558;2022-11-20T13:42:00;10.00;49.40
30288;DHT22;17103;48.316;11.558;2022-11-20T13:44:34;10.00;49.40
30288;DHT22;17103;48.316;11.558;2022-11-20T13:47:03;10.80;50.00
30288;DHT22;17103;48.316;11.558;2022-11-20T13:49:40;10.00;49.40
30288;DHT22;17103;48.316;11.558;2022-11-20T13:56:14;10.00;49.70
30288;DHT22;17103;48.316;11.558;2022-11-20T14:01:15;10.00;49.80
30288;DHT22;17103;48.316;11.558;2022-11-20T14:03:42;10.00;49.80
30288;DHT22;17103;48.316;11.558;2022-11-20T14:08:56;9.90;50.50
30288;DHT22;17103;48.316;11.558;2022-11-20T14:11:24;9.90;50.50
30288;DHT22;17103;48.316;11.558;2022-11-20T14:13:56;9.90;50.70
30288;DHT22;17103;48.316;11.558;2022-11-20T14:16:23;9.80;50.70
30288;DHT22;17103;48.316;11.558;2022-11-20T14:18:49;9.80;50.90
30288;DHT22;17103;48.316;11.558;2022-11-20T14:21:26;9.80;51.20
30288;DHT22;17103;48.316;11.558;2022-11-20T14:23:53;9.80;51.30
30288;DHT22;17103;48.316;11.558;2022-11-20T14:26:19;9.80;51.50
30288;DHT22;17103;48.316;11.558;2022-11-20T14:28:49;9.80;51.50
30288;DHT22;17103;48.316;11.558;2022-11-20T14:31:26;9.80;51.40
30288;DHT22;17103;48.316;11.558;2022-11-20T14:33:53;9.80;51.50
30288;DHT22;17103;48.316;11.558;2022-11-20T14:36:24;10.10;50.90
30288;DHT22;17103;48.316;11.558;2022-11-20T14:38:54;9.80;51.60
30288;DHT22;17103;48.316;11.558;2022-11-20T14:41:49;9.80;51.60
30288;DHT22;17103;48.316;11.558;2022-11-20T14:44:27;9.70;51.70
30288;DHT22;17103;48.316;11.558;2022-11-20T14:46:53;9.70;51.80
30288;DHT22;17103;48.316;11.558;2022-11-20T14:49:20;9.70;51.90
30288;DHT22;17103;48.316;11.558;2022-11-20T14:52:34;9.70;51.90
30288;DHT22;17103;48.316;11.558;2022-11-20T14:54:57;9.70;51.90
30288;DHT22;17103;48.316;11.558;2022-11-20T14:57:30;9.80;52.00
30288;DHT22;17103;48.316;11.558;2022-11-20T15:00:17;9.70;52.00
30288;DHT22;17103;48.316;11.558;2022-11-20T15:02:46;9.70;52.60
30288;DHT22;17103;48.316;11.558;2022-11-20T15:05:23;9.70;52.10
30288;DHT22;17103;48.316;11.558;2022-11-20T15:08:07;9.80;52.10
30288;DHT22;17103;48.316;11.558;2022-11-20T15:10:34;9.70;52.10
30288;DHT22;17103;48.316;11.558;2022-11-20T15:13:12;9.70;52.00
30288;DHT22;17103;48.316;11.558;2022-11-20T15:15:50;9.80;52.00
30288;DHT22;17103;48.316;11.558;2022-11-20T15:18:22;9.80;51.80
30288;DHT22;17103;48.316;11.558;2022-11-20T15:20:49;9.90;51.80
30288;DHT22;17103;48.316;11.558;2022-11-20T15:23:17;9.80;51.70
30288;DHT22;17103;48.316;11.558;2022-11-20T15:25:44;9.90;51.70
30288;DHT22;17103;48.316;11.558;2022-11-20T15:28:30;9.90;51.60
30288;DHT22;17103;48.316;11.558;2022-11-20T15:30:56;9.80;51.50
30288;DHT22;17103;48.316;11.558;2022-11-20T15:33:21;9.90;51.40
30288;DHT22;17103;48.316;11.558;2022-11-20T15:35:48;9.90;51.50
30288;DHT22;17103;48.316;11.558;2022-11-20T15:38:14;9.90;51.60
30288;DHT22;17103;48.316;11.558;2022-11-20T15:40:40;9.80;51.40
30288;DHT22;17103;48.316;11.558;2022-11-20T15:43:07;9.90;51.50
30288;DHT22;17103;48.316;11.558;2022-11-20T15:48:05;10.20;50.60
30288;DHT22;17103;48.316;11.558;2022-11-20T15:50:38;9.80;51.20
30288;DHT22;17103;48.316;11.558;2022-11-20T15:53:04;9.90;51.30
30288;DHT22;17103;48.316;11.558;2022-11-20T15:55:31;10.00;50.60
30288;DHT22;17103;48.316;11.558;2022-11-20T15:57:57;9.80;51.40
30288;DHT22;17103;48.316;11.558;2022-11-20T16:00:23;9.80;51.40
30288;DHT22;17103;48.316;11.558;2022-11-20T16:02:49;9.80;51.50
30288;DHT22;17103;48.316;11.558;2022-11-20T16:05:15;9.70;52.00
30288;DHT22;17103;48.316;11.558;2022-11-20T16:07:43;9.60;51.50
30288;DHT22;17103;48.316;11.558;2022-11-20T16:10:08;9.60;51.70
30288;DHT22;17103;48.316;11.558;2022-11-20T16:12:34;9.60;51.60
30288;DHT22;17103;48.316;11.558;2022-11-20T16:15:18;9.60;51.50
30288;DHT22;17103;48.316;11.558;2022-11-20T16:18:03;9.50;51.40
30288;DHT22;17103;48.316;11.558;2022-11-20T16:20:29;9.50;51.50
30288;DHT22;17103;48.316;11.558;2022-11-20T16:22:54;9.40;51.40
30288;DHT22;17103;48.316;11.558;2022-11-20T16:25:20;9.40;51.30
30288;DHT22;17103;48.316;11.558;2022-11-20T16:27:46;9.40;51.40
30288;DHT22;17103;48.316;11.558;2022-11-20T16:30:12;9.40;51.40
30288;DHT22;17103;48.316;11.558;2022-11-20T16:32:38;9.30;51.40
30288;DHT22;17103;48.316;11.558;2022-11-20T16:35:05;10.00;51.10
30288;DHT22;17103;48.316;11.558;2022-11-20T16:37:32;9.30;51.40
30288;DHT22;17103;48.316;11.558;2022-11-20T16:39:58;8.70;51.00
30288;DHT22;17103;48.316;11.558;2022-11-20T16:42:24;9.30;51.50
30288;DHT22;17103;48.316;11.558;2022-11-20T16:44:50;9.30;51.60
30288;DHT22;17103;48.316;11.558;2022-11-20T16:47:15;9.30;51.80
30288;DHT22;17103;48.316;11.558;2022-11-20T16:49:41;9.30;51.90
30288;DHT22;17103;48.316;11.558;2022-11-20T16:52:07;9.20;52.00
30288;DHT22;17103;48.316;11.558;2022-11-20T16:54:35;9.20;52.10
30288;DHT22;17103;48.316;11.558;2022-11-20T16:57:01;9.10;52.20
30288;DHT22;17103;48.316;11.558;2022-11-20T16:59:26;9.10;52.30
30288;DHT22;17103;48.316;11.558;2022-11-20T17:01:52;9.10;52.50
30288;DHT22;17103;48.316;11.558;2022-11-20T17:04:18;9.80;53.10
30288;DHT22;17103;48.316;11.558;2022-11-20T17:06:44;9.00;52.60
30288;DHT22;17103;48.316;11.558;2022-11-20T17:09:10;9.00;52.70
30288;DHT22;17103;48.316;11.558;2022-11-20T17:11:36;9.80;53.20
30288;DHT22;17103;48.316;11.558;2022-11-20T17:14:02;8.90;52.50